createdAt,value
2023-01-19T00:01:44.359Z,8.60
2023-01-19T00:04:11.146Z,8.60
2023-01-19T00:06:37.927Z,8.60
2023-01-19T00:09:04.691Z,8.50
2023-01-19T00:11:31.443Z,8.30
2023-01-19T00:13:58.859Z,8.30
2023-01-19T00:16:25.652Z,8.40
2023-01-19T00:18:52.618Z,8.50
2023-01-19T00:21:19.598Z,8.70
2023-01-19T00:23:51.295Z,8.70
2023-01-19T00:26:18.840Z,8.80
2023-01-19T00:28:45.561Z,8.70
2023-01-19T00:31:12.307Z,8.60
2023-01-19T00:33:39.122Z,8.60
2023-01-19T00:36:06.043Z,8.70
2023-01-19T00:38:32.764Z,8.70
2023-01-19T00:40:59.565Z,8.60
2023-01-19T00:43:26.309Z,8.70
2023-01-19T00:45:53.590Z,8.60
2023-01-19T00:48:20.459Z,8.70
2023-01-19T00:50:47.501Z,8.70
2023-01-19T00:53:14.278Z,8.60
2023-01-19T00:55:40.982Z,8.60
2023-01-19T00:58:07.690Z,8.60
2023-01-19T01:00:34.404Z,8.70
2023-01-19T01:03:16.316Z,8.80
2023-01-19T01:05:43.101Z,8.30
2023-01-19T01:08:09.807Z,8.40
2023-01-19T01:10:36.567Z,8.60
2023-01-19T01:13:21.250Z,8.60
2023-01-19T01:15:53.336Z,8.50
2023-01-19T01:18:20.206Z,8.50
2023-01-19T01:20:46.919Z,8.80
2023-01-19T01:23:13.800Z,8.80
2023-01-19T01:25:40.732Z,8.90
2023-01-19T01:28:08.738Z,8.80
2023-01-19T01:30:36.003Z,8.60
2023-01-19T01:33:03.096Z,8.00
2023-01-19T01:35:30.101Z,8.10
2023-01-19T01:37:58.103Z,7.90
2023-01-19T01:40:24.810Z,8.10
2023-01-19T01:42:51.485Z,8.20
2023-01-19T01:45:20.951Z,8.20
2023-01-19T01:47:47.734Z,8.20
2023-01-19T01:50:21.229Z,8.30
2023-01-19T01:53:07.090Z,8.40
2023-01-19T01:55:39.177Z,8.60
2023-01-19T01:58:06.036Z,8.60
2023-01-19T02:00:52.741Z,8.70
2023-01-19T02:03:19.576Z,8.60
2023-01-19T02:05:46.367Z,8.70
2023-01-19T02:08:33.222Z,8.60
2023-01-19T02:11:19.076Z,8.70
2023-01-19T02:13:47.053Z,8.70
2023-01-19T02:16:14.518Z,8.60
2023-01-19T02:18:43.005Z,8.60
2023-01-19T02:21:28.040Z,8.70
2023-01-19T02:23:55.353Z,8.60
2023-01-19T02:26:22.696Z,8.60
2023-01-19T02:28:53.936Z,8.50
2023-01-19T02:31:20.772Z,8.50
2023-01-19T02:33:47.448Z,8.70
2023-01-19T02:36:14.627Z,8.80
2023-01-19T02:38:41.322Z,8.80
2023-01-19T02:41:08.101Z,8.60
2023-01-19T02:43:34.807Z,8.30
2023-01-19T02:46:01.585Z,8.40
2023-01-19T02:48:28.388Z,8.50
2023-01-19T02:51:00.950Z,8.50
2023-01-19T02:53:30.802Z,8.50
2023-01-19T02:55:59.173Z,8.30
2023-01-19T02:58:38.174Z,8.20
2023-01-19T03:01:14.005Z,8.40
2023-01-19T03:03:57.817Z,8.40
2023-01-19T03:06:47.932Z,7.80
2023-01-19T03:09:29.003Z,7.70
2023-01-19T03:12:10.246Z,7.90
2023-01-19T03:14:38.388Z,8.10
2023-01-19T03:17:05.174Z,8.40
2023-01-19T03:19:36.608Z,8.30
2023-01-19T03:22:05.522Z,8.40
2023-01-19T03:24:33.713Z,8.10
2023-01-19T03:27:01.359Z,8.40
2023-01-19T03:29:28.717Z,8.50
2023-01-19T03:31:55.479Z,8.30
2023-01-19T03:34:23.975Z,8.30
2023-01-19T03:36:51.674Z,8.50
2023-01-19T03:39:19.809Z,8.50
2023-01-19T03:41:47.121Z,8.40
2023-01-19T03:44:13.936Z,8.30
2023-01-19T03:46:40.672Z,8.60
2023-01-19T03:49:07.781Z,8.60
2023-01-19T03:51:37.846Z,8.60
2023-01-19T03:54:05.655Z,8.50
2023-01-19T03:56:32.586Z,8.50
2023-01-19T03:58:59.267Z,8.50
2023-01-19T04:01:26.212Z,8.50
2023-01-19T04:03:53.047Z,8.50
2023-01-19T04:06:20.505Z,8.60
2023-01-19T04:08:47.852Z,8.60
2023-01-19T04:11:14.860Z,8.40
2023-01-19T04:13:41.574Z,8.00
2023-01-19T04:16:09.241Z,8.00
2023-01-19T04:18:35.998Z,8.10
2023-01-19T04:21:03.515Z,8.10
2023-01-19T04:23:30.224Z,8.30
2023-01-19T04:26:04.313Z,8.30
2023-01-19T04:28:31.136Z,8.50
2023-01-19T04:30:57.975Z,8.30
2023-01-19T04:33:24.831Z,8.50
2023-01-19T04:35:53.558Z,8.10
2023-01-19T04:38:21.119Z,8.10
2023-01-19T04:40:48.618Z,8.20
2023-01-19T04:43:15.414Z,8.00
2023-01-19T04:45:44.752Z,8.00
2023-01-19T04:48:11.925Z,7.60
2023-01-19T04:50:38.749Z,7.60
2023-01-19T04:53:05.487Z,7.60
2023-01-19T04:55:32.188Z,7.70
2023-01-19T04:57:59.438Z,7.80
2023-01-19T05:00:26.890Z,7.70
2023-01-19T05:02:53.686Z,7.50
2023-01-19T05:05:20.542Z,7.30
2023-01-19T05:07:47.287Z,7.20
2023-01-19T05:10:13.995Z,7.00
2023-01-19T05:12:42.223Z,7.00
2023-01-19T05:15:09.724Z,7.00
2023-01-19T05:17:36.466Z,7.00
2023-01-19T05:20:03.838Z,7.10
2023-01-19T05:22:30.632Z,7.00
2023-01-19T05:24:57.429Z,7.10
2023-01-19T05:27:24.149Z,6.90
2023-01-19T05:29:50.799Z,6.90
2023-01-19T05:32:17.482Z,7.20
2023-01-19T05:34:44.172Z,7.40
2023-01-19T05:37:11.585Z,7.10
2023-01-19T05:39:38.352Z,7.10
2023-01-19T05:42:05.167Z,7.20
2023-01-19T05:44:31.847Z,7.20
2023-01-19T05:46:58.633Z,7.10
2023-01-19T05:49:25.616Z,6.90
2023-01-19T05:51:52.372Z,7.00
2023-01-19T05:54:19.261Z,7.20
2023-01-19T05:56:46.056Z,7.20
2023-01-19T05:59:12.838Z,7.40
2023-01-19T06:01:40.320Z,7.40
2023-01-19T06:04:07.319Z,7.60
2023-01-19T06:06:34.000Z,7.40
2023-01-19T06:09:00.690Z,7.40
2023-01-19T06:11:27.423Z,7.10
2023-01-19T06:13:54.295Z,7.00
2023-01-19T06:16:21.040Z,6.90
2023-01-19T06:18:47.784Z,7.20
2023-01-19T06:21:14.569Z,7.20
2023-01-19T06:23:41.328Z,7.30
2023-01-19T06:26:08.111Z,7.40
2023-01-19T06:28:34.822Z,7.00
2023-01-19T06:31:01.660Z,7.30
2023-01-19T06:33:28.749Z,7.20
2023-01-19T06:35:55.862Z,7.30
2023-01-19T06:38:22.650Z,7.30
2023-01-19T06:40:53.922Z,7.20
2023-01-19T06:43:20.660Z,7.20
2023-01-19T06:45:47.572Z,7.30
2023-01-19T06:48:14.556Z,7.20
2023-01-19T06:50:41.576Z,7.20
2023-01-19T06:53:08.286Z,7.10
2023-01-19T06:55:36.473Z,7.30
2023-01-19T06:58:03.273Z,6.90
2023-01-19T07:00:30.001Z,7.00
2023-01-19T07:02:56.805Z,7.10
2023-01-19T07:05:24.485Z,7.20
2023-01-19T07:07:52.020Z,7.10
2023-01-19T07:10:18.828Z,7.20
2023-01-19T07:12:47.348Z,7.00
2023-01-19T07:15:14.907Z,7.10
2023-01-19T07:17:42.236Z,7.00
2023-01-19T07:20:11.258Z,7.10
2023-01-19T07:22:37.965Z,7.00
2023-01-19T07:25:05.000Z,7.10
2023-01-19T07:27:31.657Z,6.80
2023-01-19T07:29:58.475Z,6.90
2023-01-19T07:32:25.196Z,6.80
2023-01-19T07:34:51.984Z,7.00
2023-01-19T07:37:18.711Z,7.00
2023-01-19T07:39:45.415Z,7.00
2023-01-19T07:42:12.707Z,7.10
2023-01-19T07:44:39.425Z,7.30
2023-01-19T07:47:12.593Z,7.00
2023-01-19T07:49:39.544Z,7.10
2023-01-19T07:52:06.289Z,7.10
2023-01-19T07:54:33.215Z,7.20
2023-01-19T07:57:00.850Z,7.40
2023-01-19T07:59:31.127Z,7.30
2023-01-19T08:01:59.646Z,7.30
2023-01-19T08:04:27.092Z,7.40
2023-01-19T08:06:53.895Z,7.40
2023-01-19T08:09:20.682Z,7.50
2023-01-19T08:11:47.436Z,6.90
2023-01-19T08:14:14.127Z,7.10
2023-01-19T08:16:40.858Z,7.00
2023-01-19T08:19:07.644Z,6.80
2023-01-19T08:21:35.965Z,6.70
2023-01-19T08:24:02.864Z,6.80
2023-01-19T08:26:30.485Z,6.90
2023-01-19T08:28:59.973Z,6.60
2023-01-19T08:31:26.912Z,6.50
2023-01-19T08:33:53.817Z,6.40
2023-01-19T08:36:21.275Z,6.50
2023-01-19T08:38:47.984Z,6.80
2023-01-19T08:41:16.935Z,6.90
2023-01-19T08:43:45.434Z,7.20
2023-01-19T08:46:12.424Z,7.10
2023-01-19T08:48:39.989Z,7.20
2023-01-19T08:51:06.949Z,7.00
2023-01-19T08:53:34.176Z,6.90
2023-01-19T08:56:02.252Z,7.10
2023-01-19T08:58:29.095Z,7.00
2023-01-19T09:00:56.035Z,6.80
2023-01-19T09:03:22.996Z,6.50
2023-01-19T09:05:50.198Z,6.80
2023-01-19T09:08:16.966Z,6.90
2023-01-19T09:10:50.240Z,6.60
2023-01-19T09:13:17.575Z,6.20
2023-01-19T09:15:44.453Z,6.60
2023-01-19T09:18:13.619Z,7.00
2023-01-19T09:20:42.522Z,7.00
2023-01-19T09:23:10.813Z,7.00
2023-01-19T09:25:40.696Z,6.70
2023-01-19T09:28:09.160Z,6.20
2023-01-19T09:30:37.245Z,6.20
2023-01-19T09:33:06.320Z,5.60
2023-01-19T09:35:36.321Z,6.20
2023-01-19T09:38:04.247Z,5.80
2023-01-19T09:40:31.263Z,5.20
2023-01-19T09:43:04.682Z,5.90
2023-01-19T09:45:34.578Z,6.30
2023-01-19T09:48:01.733Z,6.30
2023-01-19T09:50:30.112Z,6.20
2023-01-19T09:53:05.026Z,5.80
2023-01-19T09:55:32.022Z,5.70
2023-01-19T09:57:58.960Z,6.10
2023-01-19T10:00:27.688Z,6.30
2023-01-19T10:03:20.874Z,6.40
2023-01-19T10:05:52.178Z,5.90
2023-01-19T10:08:25.097Z,5.70
2023-01-19T10:10:52.697Z,5.60
2023-01-19T10:13:38.235Z,5.30
2023-01-19T10:16:11.183Z,6.00
2023-01-19T10:18:43.261Z,6.20
2023-01-19T10:21:13.097Z,5.70
2023-01-19T10:23:49.201Z,5.60
2023-01-19T10:26:23.286Z,5.70
2023-01-19T10:28:50.943Z,4.90
2023-01-19T10:31:18.444Z,4.80
2023-01-19T10:33:45.415Z,5.20
2023-01-19T10:36:19.095Z,5.20
2023-01-19T10:38:46.319Z,5.50
2023-01-19T10:41:42.644Z,5.10
2023-01-19T10:44:10.783Z,4.60
2023-01-19T10:46:38.920Z,4.80
2023-01-19T10:49:05.683Z,5.30
2023-01-19T10:51:32.462Z,5.40
2023-01-19T10:54:00.188Z,4.90
2023-01-19T10:56:31.490Z,5.20
2023-01-19T10:59:02.029Z,5.10
2023-01-19T11:01:30.465Z,5.30
2023-01-19T11:04:05.442Z,5.20
2023-01-19T11:06:32.685Z,5.40
2023-01-19T11:09:11.629Z,5.50
2023-01-19T11:11:45.466Z,5.40
2023-01-19T11:14:15.321Z,5.40
2023-01-19T11:16:44.885Z,5.20
2023-01-19T11:19:19.292Z,5.40
2023-01-19T11:21:46.059Z,5.10
2023-01-19T11:24:14.780Z,5.10
2023-01-19T11:26:45.496Z,4.50
2023-01-19T11:29:22.660Z,4.60
2023-01-19T11:31:49.555Z,4.60
2023-01-19T11:34:35.347Z,4.30
2023-01-19T11:37:14.358Z,4.60
2023-01-19T11:39:47.721Z,5.20
2023-01-19T11:42:14.751Z,5.20
2023-01-19T11:45:00.183Z,5.20
2023-01-19T11:47:29.932Z,5.00
2023-01-19T11:50:02.671Z,4.50
2023-01-19T11:52:32.276Z,4.60
2023-01-19T11:55:21.647Z,5.00
2023-01-19T11:57:49.453Z,4.60
2023-01-19T12:00:25.420Z,4.40
2023-01-19T12:02:56.216Z,4.60
2023-01-19T12:05:22.961Z,4.70
2023-01-19T12:07:49.845Z,5.20
2023-01-19T12:10:27.393Z,4.80
2023-01-19T12:12:54.132Z,4.80
2023-01-19T12:15:32.074Z,4.40
2023-01-19T12:18:00.273Z,4.60
2023-01-19T12:20:46.801Z,4.80
2023-01-19T12:23:23.038Z,4.90
2023-01-19T12:26:08.500Z,4.70
2023-01-19T12:28:37.256Z,4.90
2023-01-19T12:31:04.117Z,5.20
2023-01-19T12:33:30.920Z,5.30
2023-01-19T12:36:03.783Z,5.10
2023-01-19T12:38:30.472Z,5.20
2023-01-19T12:41:15.647Z,4.90
2023-01-19T12:43:42.333Z,4.90
2023-01-19T12:46:27.430Z,5.30
2023-01-19T12:48:54.139Z,4.80
2023-01-19T12:51:24.378Z,5.30
2023-01-19T12:53:52.109Z,5.10
2023-01-19T12:56:20.147Z,5.30
2023-01-19T12:58:50.002Z,4.40
2023-01-19T13:01:21.890Z,4.40
2023-01-19T13:03:58.834Z,4.60
2023-01-19T13:06:44.340Z,4.30
2023-01-19T13:09:29.627Z,4.70
2023-01-19T13:12:19.124Z,5.10
2023-01-19T13:14:45.908Z,5.10
2023-01-19T13:17:21.689Z,5.10
2023-01-19T13:19:50.266Z,5.10
2023-01-19T13:22:40.371Z,5.20
2023-01-19T13:25:08.101Z,5.30
2023-01-19T13:27:34.889Z,5.30
2023-01-19T13:30:02.095Z,4.90
2023-01-19T13:32:29.744Z,4.70
2023-01-19T13:34:57.663Z,5.00
2023-01-19T13:37:29.687Z,5.00
2023-01-19T13:39:56.423Z,5.30
2023-01-19T13:42:23.169Z,5.30
2023-01-19T13:44:52.487Z,5.20
2023-01-19T13:47:20.384Z,5.10
2023-01-19T13:49:47.108Z,4.90
2023-01-19T13:52:17.223Z,5.00
2023-01-19T13:54:50.665Z,5.10
2023-01-19T13:57:40.747Z,5.10
2023-01-19T14:00:16.228Z,4.30
2023-01-19T14:03:02.061Z,4.40
2023-01-19T14:05:33.053Z,4.80
2023-01-19T14:08:20.132Z,5.00
2023-01-19T14:10:47.694Z,4.40
2023-01-19T14:13:21.239Z,4.70
2023-01-19T14:15:48.854Z,4.80
2023-01-19T14:18:22.610Z,4.90
2023-01-19T14:20:52.797Z,5.20
2023-01-19T14:23:38.107Z,5.00
2023-01-19T14:26:04.905Z,4.90
2023-01-19T14:28:40.735Z,4.90
2023-01-19T14:31:36.790Z,4.70
2023-01-19T14:34:04.035Z,4.60
2023-01-19T14:36:34.619Z,4.80
2023-01-19T14:39:01.583Z,4.80
2023-01-19T14:41:38.663Z,5.10
2023-01-19T14:44:09.915Z,5.30
2023-01-19T14:46:36.639Z,4.90
2023-01-19T14:49:04.426Z,5.10
2023-01-19T14:51:31.120Z,5.10
2023-01-19T14:53:58.960Z,4.70
2023-01-19T14:56:29.745Z,4.70
2023-01-19T14:58:57.203Z,4.90
2023-01-19T15:01:24.606Z,5.10
2023-01-19T15:03:51.402Z,4.10
2023-01-19T15:06:18.956Z,4.50
2023-01-19T15:08:45.712Z,4.10
2023-01-19T15:11:14.557Z,4.30
2023-01-19T15:13:41.275Z,4.60
2023-01-19T15:16:09.103Z,4.40
2023-01-19T15:18:36.001Z,4.70
2023-01-19T15:21:03.302Z,4.70
2023-01-19T15:23:30.559Z,4.60
2023-01-19T15:26:00.677Z,4.60
2023-01-19T15:28:27.368Z,4.40
2023-01-19T15:30:54.221Z,4.50
2023-01-19T15:33:21.512Z,4.70
2023-01-19T15:35:48.306Z,4.40
2023-01-19T15:38:15.008Z,4.80
2023-01-19T15:40:41.803Z,4.90
2023-01-19T15:43:11.426Z,5.00
2023-01-19T15:45:38.895Z,5.00
2023-01-19T15:48:06.487Z,4.90
2023-01-19T15:50:33.629Z,4.90
2023-01-19T15:53:00.433Z,4.40
2023-01-19T15:55:27.217Z,4.20
2023-01-19T15:57:54.047Z,4.10
2023-01-19T16:00:20.938Z,4.30
2023-01-19T16:02:50.203Z,4.40
2023-01-19T16:05:17.083Z,4.30
2023-01-19T16:07:43.816Z,4.40
2023-01-19T16:10:11.101Z,4.40
2023-01-19T16:12:38.082Z,4.60
2023-01-19T16:15:05.008Z,4.70
2023-01-19T16:17:31.732Z,4.60
2023-01-19T16:19:58.436Z,4.80
2023-01-19T16:22:25.200Z,4.80
2023-01-19T16:24:53.074Z,4.90
2023-01-19T16:27:19.840Z,5.20
2023-01-19T16:29:47.539Z,5.30
2023-01-19T16:32:15.240Z,5.10
2023-01-19T16:34:42.419Z,4.90
2023-01-19T16:37:09.182Z,4.90
2023-01-19T16:39:35.851Z,4.90
2023-01-19T16:42:02.522Z,5.10
2023-01-19T16:44:29.303Z,5.00
2023-01-19T16:46:56.013Z,5.20
2023-01-19T16:49:24.292Z,5.30
2023-01-19T16:51:51.183Z,5.10
2023-01-19T16:54:18.696Z,5.00
2023-01-19T16:56:45.601Z,5.00
2023-01-19T16:59:12.934Z,5.00
2023-01-19T17:01:39.793Z,5.20
2023-01-19T17:04:06.623Z,5.40
2023-01-19T17:06:33.482Z,5.40
2023-01-19T17:09:00.308Z,5.10
2023-01-19T17:11:28.193Z,5.00
2023-01-19T17:14:00.173Z,4.80
2023-01-19T17:16:27.368Z,4.60
2023-01-19T17:18:54.279Z,4.70
2023-01-19T17:21:21.042Z,4.40
2023-01-19T17:23:48.211Z,4.10
2023-01-19T17:26:15.058Z,4.50
2023-01-19T17:28:41.910Z,5.00
2023-01-19T17:31:09.554Z,4.70
2023-01-19T17:33:36.440Z,5.00
2023-01-19T17:36:07.310Z,5.00
2023-01-19T17:38:34.308Z,5.00
2023-01-19T17:41:01.020Z,4.90
2023-01-19T17:43:27.841Z,4.60
2023-01-19T17:45:54.657Z,5.00
2023-01-19T17:48:21.507Z,4.40
2023-01-19T17:50:48.231Z,4.70
2023-01-19T17:53:14.959Z,4.60
2023-01-19T17:55:41.637Z,4.50
2023-01-19T17:58:08.384Z,4.30
2023-01-19T18:00:35.165Z,4.60
2023-01-19T18:03:01.943Z,4.90
2023-01-19T18:05:28.674Z,4.90
2023-01-19T18:07:55.400Z,5.20
2023-01-19T18:10:22.294Z,5.40
2023-01-19T18:12:49.029Z,5.50
2023-01-19T18:15:16.973Z,5.70
2023-01-19T18:17:43.793Z,5.70
2023-01-19T18:20:11.148Z,5.80
2023-01-19T18:22:38.074Z,5.60
2023-01-19T18:25:04.974Z,5.70
2023-01-19T18:27:31.708Z,5.80
2023-01-19T18:29:58.473Z,5.90
2023-01-19T18:32:27.166Z,5.90
2023-01-19T18:34:54.287Z,5.70
2023-01-19T18:37:21.049Z,5.80
2023-01-19T18:39:47.879Z,5.70
2023-01-19T18:42:14.754Z,5.10
2023-01-19T18:44:41.521Z,5.20
2023-01-19T18:47:08.233Z,5.40
2023-01-19T18:49:34.956Z,5.60
2023-01-19T18:52:03.893Z,5.60
2023-01-19T18:54:30.755Z,5.20
2023-01-19T18:56:57.459Z,5.10
2023-01-19T18:59:24.151Z,5.20
2023-01-19T19:01:50.965Z,5.50
2023-01-19T19:04:17.749Z,5.60
2023-01-19T19:06:44.469Z,5.50
2023-01-19T19:09:11.279Z,5.60
2023-01-19T19:11:38.148Z,5.80
2023-01-19T19:14:05.059Z,5.70
2023-01-19T19:16:34.866Z,5.70
2023-01-19T19:19:02.556Z,5.60
2023-01-19T19:21:29.418Z,5.50
2023-01-19T19:23:56.559Z,5.70
2023-01-19T19:26:23.481Z,5.50
2023-01-19T19:28:50.265Z,5.60
2023-01-19T19:31:21.109Z,5.50
2023-01-19T19:33:48.676Z,5.50
2023-01-19T19:36:15.380Z,5.60
2023-01-19T19:38:44.368Z,5.40
2023-01-19T19:41:14.965Z,5.30
2023-01-19T19:43:41.770Z,5.40
2023-01-19T19:46:09.520Z,5.40
2023-01-19T19:48:38.892Z,5.50
2023-01-19T19:51:18.000Z,5.50
2023-01-19T19:53:45.970Z,5.40
2023-01-19T19:56:14.222Z,4.90
2023-01-19T19:58:41.866Z,5.10
2023-01-19T20:01:21.998Z,5.20
2023-01-19T20:03:52.357Z,5.10
2023-01-19T20:06:22.730Z,5.10
2023-01-19T20:08:49.755Z,4.90
2023-01-19T20:11:20.501Z,5.00
2023-01-19T20:13:47.763Z,5.20
2023-01-19T20:16:15.558Z,5.10
2023-01-19T20:18:42.917Z,5.20
2023-01-19T20:21:15.908Z,5.40
2023-01-19T20:23:42.655Z,5.20
2023-01-19T20:26:09.827Z,5.10
2023-01-19T20:28:36.713Z,5.20
2023-01-19T20:31:12.775Z,5.30
2023-01-19T20:33:39.855Z,5.30
2023-01-19T20:36:06.721Z,5.10
2023-01-19T20:38:33.384Z,5.20
2023-01-19T20:41:03.210Z,5.30
2023-01-19T20:43:30.083Z,5.30
2023-01-19T20:45:56.949Z,5.30
2023-01-19T20:48:23.751Z,5.40
2023-01-19T20:50:50.497Z,5.40
2023-01-19T20:53:17.192Z,5.40
2023-01-19T20:55:43.908Z,5.20
2023-01-19T20:58:10.647Z,5.20
2023-01-19T21:00:37.431Z,5.20
2023-01-19T21:03:04.480Z,5.10
2023-01-19T21:05:31.228Z,5.00
2023-01-19T21:07:58.046Z,4.80
2023-01-19T21:10:26.875Z,4.60
2023-01-19T21:12:53.619Z,4.40
2023-01-19T21:15:20.328Z,4.20
2023-01-19T21:17:47.095Z,4.30
2023-01-19T21:20:14.041Z,4.80
2023-01-19T21:22:40.770Z,5.00
2023-01-19T21:25:07.725Z,5.10
2023-01-19T21:27:34.425Z,5.20
2023-01-19T21:30:02.352Z,5.30
2023-01-19T21:32:29.412Z,5.30
2023-01-19T21:34:56.164Z,5.30
2023-01-19T21:37:22.952Z,5.30
2023-01-19T21:39:49.703Z,5.30
2023-01-19T21:42:16.469Z,5.20
2023-01-19T21:44:43.207Z,5.10
2023-01-19T21:47:11.870Z,5.00
2023-01-19T21:49:38.680Z,5.00
2023-01-19T21:52:05.497Z,5.10
2023-01-19T21:54:32.224Z,4.90
2023-01-19T21:57:00.181Z,4.70
2023-01-19T21:59:27.060Z,4.90
2023-01-19T22:01:53.917Z,4.90
2023-01-19T22:04:20.748Z,5.00
2023-01-19T22:06:47.937Z,5.00
2023-01-19T22:09:14.627Z,5.00
2023-01-19T22:11:41.324Z,5.10
2023-01-19T22:14:08.084Z,5.10
2023-01-19T22:16:34.799Z,5.10
2023-01-19T22:19:02.267Z,5.00
2023-01-19T22:21:30.157Z,4.90
2023-01-19T22:23:59.082Z,5.00
2023-01-19T22:26:26.227Z,5.10
2023-01-19T22:28:53.806Z,4.90
2023-01-19T22:31:20.620Z,4.90
2023-01-19T22:33:49.110Z,4.70
2023-01-19T22:36:19.848Z,4.60
2023-01-19T22:38:51.075Z,4.60
2023-01-19T22:41:18.940Z,4.60
2023-01-19T22:43:45.991Z,4.70
2023-01-19T22:46:12.765Z,4.90
2023-01-19T22:48:40.601Z,4.80
2023-01-19T22:51:07.454Z,4.70
2023-01-19T22:53:34.246Z,4.90
2023-01-19T22:56:01.060Z,4.80
2023-01-19T22:58:27.778Z,4.80
2023-01-19T23:00:54.595Z,4.70
2023-01-19T23:03:21.360Z,4.70
2023-01-19T23:05:48.185Z,4.80
2023-01-19T23:08:14.952Z,4.80
2023-01-19T23:10:41.685Z,4.70
2023-01-19T23:13:08.410Z,4.80
2023-01-19T23:15:35.191Z,4.70
2023-01-19T23:18:01.926Z,4.70
2023-01-19T23:20:28.668Z,4.70
2023-01-19T23:22:55.431Z,4.70
2023-01-19T23:25:22.249Z,4.80
2023-01-19T23:27:49.003Z,4.90
2023-01-19T23:30:15.889Z,4.90
2023-01-19T23:32:46.445Z,4.90
2023-01-19T23:35:14.555Z,5.00
2023-01-19T23:37:41.660Z,5.00
2023-01-19T23:40:09.910Z,5.00
2023-01-19T23:42:36.801Z,5.00
2023-01-19T23:45:03.604Z,5.00
2023-01-19T23:47:30.277Z,4.90
2023-01-19T23:49:57.048Z,4.90
2023-01-19T23:52:23.866Z,5.00
2023-01-19T23:54:50.836Z,5.00
2023-01-19T23:57:17.578Z,5.10
2023-01-19T23:59:44.547Z,5.00
